createdAt,value
2022-11-01T00:01:52.769Z,25.52
2022-11-01T00:04:45.962Z,27.67
2022-11-01T00:07:34.237Z,24.95
2022-11-01T00:10:24.418Z,25.00
2022-11-01T00:13:15.159Z,20.92
2022-11-01T00:16:06.256Z,24.48
2022-11-01T00:18:54.370Z,29.40
2022-11-01T00:21:42.961Z,27.60
2022-11-01T00:24:31.735Z,30.85
2022-11-01T00:27:22.329Z,34.05
2022-11-01T00:30:12.890Z,26.33
2022-11-01T00:33:01.161Z,26.25
2022-11-01T00:35:49.515Z,33.97
2022-11-01T00:38:38.225Z,31.17
2022-11-01T00:41:26.793Z,26.45
2022-11-01T00:44:15.032Z,27.95
2022-11-01T00:47:03.171Z,29.50
2022-11-01T00:49:54.068Z,30.27
2022-11-01T00:52:42.505Z,29.05
2022-11-01T00:55:30.729Z,31.63
2022-11-01T00:58:19.145Z,32.17
2022-11-01T01:01:07.746Z,31.77
2022-11-01T01:04:12.801Z,33.03
2022-11-01T01:07:01.154Z,36.22
2022-11-01T01:09:49.412Z,36.50
2022-11-01T01:12:40.249Z,29.83
2022-11-01T01:15:28.402Z,37.50
2022-11-01T01:18:17.969Z,31.95
2022-11-01T01:21:06.918Z,35.33
2022-11-01T01:23:54.889Z,39.72
2022-11-01T01:26:43.345Z,35.05
2022-11-01T01:29:31.627Z,34.25
2022-11-01T01:32:24.761Z,34.30
2022-11-01T01:35:13.024Z,36.13
2022-11-01T01:38:01.379Z,36.25
2022-11-01T01:40:49.859Z,32.08
2022-11-01T01:43:43.632Z,38.85
2022-11-01T01:46:31.910Z,30.27
2022-11-01T01:49:20.137Z,28.73
2022-11-01T01:52:09.323Z,28.02
2022-11-01T01:55:02.153Z,32.28
2022-11-01T01:57:51.707Z,31.63
2022-11-01T02:00:45.056Z,34.22
2022-11-01T02:03:36.244Z,33.70
2022-11-01T02:06:26.538Z,34.92
2022-11-01T02:09:19.004Z,35.03
2022-11-01T02:12:07.644Z,30.45
2022-11-01T02:14:56.024Z,38.20
2022-11-01T02:17:57.039Z,36.40
2022-11-01T02:21:18.833Z,35.80
2022-11-01T02:24:37.597Z,42.38
2022-11-01T02:28:10.015Z,33.92
2022-11-01T02:31:56.885Z,36.92
2022-11-01T02:35:20.769Z,37.65
2022-11-01T02:38:41.829Z,41.78
2022-11-01T02:41:42.754Z,39.65
2022-11-01T02:44:38.217Z,40.38
2022-11-01T02:47:27.504Z,37.22
2022-11-01T02:50:15.832Z,44.03
2022-11-01T02:53:04.769Z,42.72
2022-11-01T02:55:53.995Z,46.17
2022-11-01T02:58:43.228Z,45.22
2022-11-01T03:01:36.351Z,47.28
2022-11-01T03:04:24.871Z,46.30
2022-11-01T03:07:15.617Z,45.15
2022-11-01T03:10:07.327Z,48.60
2022-11-01T03:13:14.180Z,48.58
2022-11-01T03:16:19.457Z,47.03
2022-11-01T03:19:10.330Z,51.17
2022-11-01T03:22:09.452Z,43.58
2022-11-01T03:25:34.953Z,42.13
2022-11-01T03:28:39.849Z,40.35
2022-11-01T03:31:36.870Z,44.45
2022-11-01T03:34:36.580Z,40.95
2022-11-01T03:37:30.082Z,41.80
2022-11-01T03:40:19.324Z,44.80
2022-11-01T03:43:12.639Z,42.72
2022-11-01T03:46:00.674Z,45.75
2022-11-01T03:48:50.847Z,39.75
2022-11-01T03:51:39.293Z,42.95
2022-11-01T03:54:29.351Z,44.65
2022-11-01T03:57:23.684Z,51.15
2022-11-01T04:06:59.595Z,54.17
2022-11-01T04:09:55.107Z,65.07
2022-11-01T04:21:53.354Z,48.88
2022-11-01T04:28:54.920Z,57.72
2022-11-01T04:31:48.611Z,64.35
2022-11-01T04:35:20.516Z,58.97
2022-11-01T04:38:13.525Z,61.60
2022-11-01T04:41:32.342Z,59.55
2022-11-01T04:44:28.671Z,60.60
2022-11-01T04:47:31.597Z,69.22
2022-11-01T04:50:56.767Z,61.75
2022-11-01T04:54:13.582Z,63.65
2022-11-01T04:57:01.518Z,63.72
2022-11-01T04:59:50.896Z,54.25
2022-11-01T05:02:40.734Z,65.03
2022-11-01T05:05:29.206Z,52.78
2022-11-01T05:08:17.453Z,55.17
2022-11-01T05:11:08.687Z,63.15
2022-11-01T05:13:56.668Z,65.18
2022-11-01T05:16:44.767Z,58.38
2022-11-01T05:19:32.825Z,71.82
2022-11-01T05:22:20.756Z,67.05
2022-11-01T05:25:15.122Z,73.95
2022-11-01T05:28:07.648Z,63.38
2022-11-01T05:30:55.718Z,68.90
2022-11-01T05:33:43.765Z,65.80
2022-11-01T05:36:31.834Z,61.20
2022-11-01T05:39:19.956Z,62.88
2022-11-01T05:42:08.253Z,59.13
2022-11-01T05:44:58.600Z,61.13
2022-11-01T05:47:47.216Z,61.22
2022-11-01T05:50:35.108Z,56.28
2022-11-01T05:53:23.239Z,59.72
2022-11-01T05:56:11.460Z,63.80
2022-11-01T05:58:59.485Z,53.47
2022-11-01T06:01:50.518Z,51.90
2022-11-01T06:04:38.778Z,51.80
2022-11-01T06:07:27.231Z,52.30
2022-11-01T06:10:15.346Z,54.28
2022-11-01T06:13:03.729Z,54.00
2022-11-01T06:15:59.379Z,59.92
2022-11-01T06:18:50.350Z,56.30
2022-11-01T06:21:38.274Z,56.42
2022-11-01T06:24:26.628Z,58.67
2022-11-01T06:27:14.543Z,61.50
2022-11-01T06:30:02.725Z,58.85
2022-11-01T06:32:51.900Z,72.70
2022-11-01T06:35:42.565Z,75.97
2022-11-01T06:38:31.779Z,69.70
2022-11-01T06:41:23.761Z,76.28
2022-11-01T06:44:13.446Z,74.30
2022-11-01T06:47:04.501Z,89.47
2022-11-01T06:49:52.784Z,83.38
2022-11-01T06:52:45.980Z,86.75
2022-11-01T06:55:34.838Z,90.00
2022-11-01T06:58:25.258Z,88.75
2022-11-01T07:01:18.149Z,88.45
2022-11-01T07:04:06.528Z,93.78
2022-11-01T07:07:05.303Z,99.32
2022-11-01T07:10:07.102Z,91.68
2022-11-01T07:13:12.725Z,107.90
2022-11-01T07:16:07.565Z,93.00
2022-11-01T07:19:17.602Z,85.93
2022-11-01T07:22:08.703Z,94.63
2022-11-01T07:24:57.144Z,90.95
2022-11-01T07:27:48.211Z,91.63
2022-11-01T07:30:39.523Z,77.75
2022-11-01T07:33:29.253Z,89.95
2022-11-01T07:36:20.658Z,81.22
2022-11-01T07:39:14.714Z,74.10
2022-11-01T07:42:06.423Z,68.32
2022-11-01T07:45:10.502Z,83.20
2022-11-01T07:48:06.357Z,80.18
2022-11-01T07:50:58.237Z,81.35
2022-11-01T07:53:46.700Z,65.57
2022-11-01T07:56:43.630Z,61.38
2022-11-01T07:59:35.056Z,69.35
2022-11-01T08:02:24.153Z,72.25
2022-11-01T08:05:27.953Z,74.03
2022-11-01T08:08:17.199Z,68.47
2022-11-01T08:11:06.072Z,60.67
2022-11-01T08:14:06.097Z,67.65
2022-11-01T08:17:06.755Z,57.83
2022-11-01T08:19:58.700Z,53.50
2022-11-01T08:22:47.725Z,52.63
2022-11-01T08:25:37.111Z,50.63
2022-11-01T08:28:34.012Z,36.03
2022-11-01T08:31:30.879Z,41.00
2022-11-01T08:34:42.500Z,35.72
2022-11-01T08:37:36.427Z,35.13
2022-11-01T08:41:23.612Z,38.03
2022-11-01T08:44:14.232Z,38.28
2022-11-01T08:47:08.878Z,39.15
2022-11-01T08:50:19.349Z,37.40
2022-11-01T08:53:14.753Z,37.58
2022-11-01T08:56:14.424Z,42.58
2022-11-01T08:59:05.306Z,48.95
2022-11-01T09:02:09.163Z,43.78
2022-11-01T09:05:13.237Z,34.80
2022-11-01T09:08:29.767Z,41.35
2022-11-01T09:14:45.648Z,36.55
2022-11-01T09:20:49.454Z,34.50
2022-11-01T09:35:07.526Z,27.08
2022-11-01T09:55:10.351Z,17.55
2022-11-01T12:25:44.577Z,3.25
2022-11-01T15:48:38.149Z,7.03
2022-11-01T15:52:53.660Z,11.65
2022-11-01T16:00:20.525Z,11.23
2022-11-01T16:12:58.500Z,10.55
2022-11-01T17:11:50.523Z,8.40
2022-11-01T17:20:01.106Z,12.80
2022-11-01T17:26:16.317Z,17.52
2022-11-01T17:32:40.938Z,8.77
2022-11-01T17:36:43.844Z,10.95
2022-11-01T17:39:38.827Z,11.23
2022-11-01T17:42:54.951Z,9.43
2022-11-01T17:45:56.823Z,10.93
2022-11-01T17:49:00.510Z,15.27
2022-11-01T18:05:56.725Z,13.55
2022-11-01T18:13:10.521Z,11.77
2022-11-01T18:21:28.442Z,19.77
2022-11-01T18:29:30.498Z,14.45
2022-11-01T18:38:38.531Z,10.52
2022-11-01T18:41:34.502Z,18.30
2022-11-01T18:44:34.012Z,10.60
2022-11-01T18:47:43.398Z,8.85
2022-11-01T18:53:55.166Z,19.70
2022-11-01T18:57:06.363Z,15.43
2022-11-01T18:59:55.619Z,12.07
2022-11-01T19:06:36.069Z,13.63
2022-11-01T19:09:40.331Z,12.30
2022-11-01T19:12:47.321Z,11.15
2022-11-01T19:16:00.151Z,11.65
2022-11-01T19:18:57.722Z,13.52
2022-11-01T19:21:59.781Z,12.57
2022-11-01T19:25:09.262Z,12.75
2022-11-01T19:28:38.725Z,14.13
2022-11-01T19:31:57.278Z,15.27
2022-11-01T19:34:54.394Z,11.13
2022-11-01T19:37:58.664Z,15.82
2022-11-01T19:40:56.330Z,18.02
2022-11-01T19:43:47.856Z,12.95
2022-11-01T19:46:44.637Z,10.23
2022-11-01T19:52:59.009Z,14.63
2022-11-01T19:56:20.515Z,16.25
2022-11-01T19:59:18.641Z,16.15
2022-11-01T20:02:23.766Z,13.77
2022-11-01T20:05:33.752Z,13.85
2022-11-01T20:08:35.278Z,16.88
2022-11-01T20:11:26.581Z,15.55
2022-11-01T20:14:22.577Z,17.85
2022-11-01T20:17:13.918Z,14.90
2022-11-01T20:20:08.633Z,13.18
2022-11-01T20:23:20.291Z,13.90
2022-11-01T20:26:30.575Z,12.13
2022-11-01T20:29:27.941Z,13.98
2022-11-01T20:32:18.451Z,13.15
2022-11-01T20:35:19.498Z,24.70
2022-11-01T20:41:16.067Z,11.95
2022-11-01T20:44:15.252Z,14.10
2022-11-01T20:47:08.096Z,14.60
2022-11-01T20:49:56.261Z,18.00
2022-11-01T20:52:47.090Z,18.58
2022-11-01T20:55:49.157Z,15.45
2022-11-01T20:58:48.620Z,19.45
2022-11-01T21:01:42.519Z,14.35
2022-11-01T21:04:31.249Z,15.93
2022-11-01T21:07:27.342Z,16.35
2022-11-01T21:10:48.432Z,14.07
2022-11-01T21:13:51.323Z,15.98
2022-11-01T21:16:42.462Z,12.30
2022-11-01T21:19:35.361Z,14.30
2022-11-01T21:22:47.176Z,16.23
2022-11-01T21:26:05.054Z,13.43
2022-11-01T21:29:02.847Z,15.75
2022-11-01T21:32:00.077Z,15.63
2022-11-01T21:34:52.179Z,15.63
2022-11-01T21:37:42.941Z,16.65
2022-11-01T21:40:38.767Z,16.23
2022-11-01T21:43:47.293Z,14.40
2022-11-01T21:46:39.674Z,20.08
2022-11-01T21:49:37.750Z,17.27
2022-11-01T21:52:32.139Z,13.90
2022-11-01T21:55:26.598Z,20.83
2022-11-01T21:58:23.905Z,13.50
2022-11-01T22:01:15.602Z,17.25
2022-11-01T22:04:07.223Z,14.05
2022-11-01T22:06:57.699Z,20.08
2022-11-01T22:10:00.169Z,13.40
2022-11-01T22:13:06.340Z,16.13
2022-11-01T22:16:00.993Z,16.17
2022-11-01T22:18:54.842Z,16.50
2022-11-01T22:21:50.049Z,15.55
2022-11-01T22:25:01.125Z,17.67
2022-11-01T22:27:57.469Z,16.48
2022-11-01T22:31:08.671Z,13.90
2022-11-01T22:34:08.994Z,14.07
2022-11-01T22:37:01.004Z,12.85
2022-11-01T22:39:53.101Z,14.20
2022-11-01T22:43:06.415Z,13.50
2022-11-01T22:45:59.370Z,12.32
2022-11-01T22:49:02.151Z,17.33
2022-11-01T22:52:38.160Z,16.88
2022-11-01T22:55:38.212Z,11.93
2022-11-01T22:58:41.998Z,15.65
2022-11-01T23:01:35.511Z,19.80
2022-11-01T23:04:27.824Z,14.48
2022-11-01T23:07:51.300Z,19.95
2022-11-01T23:10:50.930Z,16.48
2022-11-01T23:14:39.828Z,16.20
2022-11-01T23:17:39.851Z,17.08
2022-11-01T23:21:12.484Z,14.23
2022-11-01T23:24:03.222Z,12.77
2022-11-01T23:26:54.937Z,16.27
2022-11-01T23:30:06.454Z,13.85
2022-11-01T23:36:48.187Z,16.48
2022-11-01T23:39:50.591Z,16.17
2022-11-01T23:42:50.270Z,11.43
2022-11-01T23:45:55.720Z,18.33
2022-11-01T23:48:53.968Z,17.23
2022-11-01T23:51:46.209Z,20.95
2022-11-01T23:54:48.683Z,15.40
2022-11-01T23:57:42.381Z,17.05
